Time;durP1;ratioP1;P1;durP2;ratioP2;P2;SDS_P1;SDS_P2;PMS_P1;PMS_P2;Temp;Humidity;BMP_temperature;BMP_pressure;BME280_temperature;BME280_humidity;BME280_pressure;Samples;Min_cycle;Max_cycle;Signal;HPM_P1;HPM_P2
2021/07/02 00:01:56;;;;;;;24.45;15.85;;;14.80;99.90;;;;;;4165166;28;20072;-86
2021/07/02 00:04:23;;;;;;;32.75;16.67;;;14.80;99.90;;;;;;4165406;28;20124;-86
2021/07/02 00:06:23;;;;;;;29.05;16.23;;;14.70;99.90;;;;;;4163051;28;20033;-85
2021/07/02 00:08:26;;;;;;;29.35;16.85;;;14.70;99.90;;;;;;4180501;28;20033;-86
2021/07/02 00:10:40;;;;;;;24.75;15.52;;;14.70;99.90;;;;;;4163656;28;20397;-84
2021/07/02 00:12:40;;;;;;;;;;;14.70;99.90;;;;;;4165735;28;20041;-86
2021/07/02 00:14:47;;;;;;;24.95;15.95;;;14.60;99.90;;;;;;4163574;28;19913;-85
2021/07/02 00:16:47;;;;;;;31.13;17.13;;;14.60;99.90;;;;;;4165114;28;20477;-85
2021/07/02 00:18:54;;;;;;;24.05;15.05;;;14.60;99.90;;;;;;4163151;28;20117;-86
2021/07/02 00:20:55;;;;;;;33.40;15.50;;;14.60;99.90;;;;;;4159463;28;20073;-86
2021/07/02 00:22:55;;;;;;;23.58;14.60;;;14.60;99.90;;;;;;4152928;28;20564;-87
2021/07/02 00:25:04;;;;;;;19.45;13.80;;;14.90;99.90;;;;;;4162464;28;20025;-87
2021/07/02 00:27:05;;;;;;;25.88;15.43;;;14.80;99.90;;;;;;4163223;28;20038;-86
2021/07/02 00:29:12;;;;;;;25.50;16.65;;;14.80;99.90;;;;;;4164622;28;20043;-87
2021/07/02 00:31:19;;;;;;;32.38;15.40;;;14.80;99.90;;;;;;4163178;28;20025;-87
2021/07/02 00:33:26;;;;;;;24.83;16.42;;;14.70;99.90;;;;;;4165218;28;20025;-87
2021/07/02 00:36:03;;;;;;;18.90;14.13;;;14.70;99.90;;;;;;4163001;28;20480;-86
2021/07/02 00:38:08;;;;;;;23.17;15.35;;;14.80;99.90;;;;;;4163700;28;20029;-88
2021/07/02 00:40:16;;;;;;;25.70;15.00;;;14.90;99.90;;;;;;4163079;28;20492;-87
2021/07/02 00:42:23;;;;;;;24.38;14.40;;;14.90;99.90;;;;;;4164846;28;20032;-87
2021/07/02 00:44:45;;;;;;;27.60;15.18;;;14.80;99.90;;;;;;4163540;28;20033;-87
2021/07/02 00:46:50;;;;;;;34.75;16.05;;;14.90;99.90;;;;;;4163309;28;20080;-86
2021/07/02 00:48:51;;;;;;;29.17;13.57;;;14.80;99.90;;;;;;4164693;28;20055;-87
2021/07/02 00:50:51;;;;;;;25.60;14.32;;;14.80;99.90;;;;;;4162355;28;20030;-87
2021/07/02 00:52:55;;;;;;;31.35;14.20;;;14.70;99.90;;;;;;4160761;28;20028;-86
2021/07/02 00:55:24;;;;;;;34.38;15.43;;;14.70;99.90;;;;;;4164722;28;20486;-87
2021/07/02 00:57:27;;;;;;;30.65;13.70;;;14.70;99.90;;;;;;4163300;28;20030;-87
2021/07/02 00:59:30;;;;;;;21.52;14.10;;;14.60;99.90;;;;;;4164497;28;20026;-87
2021/07/02 01:01:32;;;;;;;29.65;14.95;;;14.60;99.90;;;;;;4162902;28;20040;-87
2021/07/02 01:03:32;;;;;;;32.42;15.75;;;14.70;99.90;;;;;;4162551;28;20033;-87
2021/07/02 01:05:33;;;;;;;27.15;15.00;;;14.70;99.90;;;;;;4161911;28;20468;-88
2021/07/02 01:07:41;;;;;;;25.27;14.45;;;14.60;99.90;;;;;;4162199;28;20029;-86
2021/07/02 01:09:45;;;;;;;33.45;14.93;;;14.50;99.90;;;;;;4162958;28;20043;-87
2021/07/02 01:11:59;;;;;;;27.88;15.68;;;14.60;99.90;;;;;;4179240;28;20029;-86
2021/07/02 01:14:06;;;;;;;24.52;15.05;;;14.60;99.90;;;;;;4147367;28;20057;-87
2021/07/02 01:16:07;;;;;;;22.30;14.75;;;14.60;99.90;;;;;;4162439;28;20022;-86
2021/07/02 01:18:15;;;;;;;25.60;13.75;;;14.60;99.90;;;;;;4162894;28;20075;-87
2021/07/02 01:20:35;;;;;;;21.52;13.80;;;14.60;99.90;;;;;;4163021;28;20080;-87
2021/07/02 01:22:39;;;;;;;22.08;14.75;;;14.60;99.90;;;;;;4150286;28;20045;-88
2021/07/02 01:24:40;;;;;;;23.80;15.52;;;14.60;99.90;;;;;;4162994;28;20091;-88
2021/07/02 01:26:42;;;;;;;26.13;13.18;;;14.60;99.90;;;;;;4162363;28;20041;-87
2021/07/02 01:28:43;;;;;;;22.03;14.97;;;14.60;99.90;;;;;;4163984;28;20473;-87
2021/07/02 01:30:45;;;;;;;24.98;15.57;;;14.60;99.90;;;;;;4164043;28;20022;-87
2021/07/02 01:32:49;;;;;;;27.63;16.88;;;14.50;99.90;;;;;;4162964;28;20057;-87
2021/07/02 01:34:49;;;;;;;23.55;15.43;;;14.50;99.90;;;;;;4162677;28;20057;-86
2021/07/02 01:36:55;;;;;;;26.77;16.30;;;14.50;99.90;;;;;;4157985;28;20528;-87
2021/07/02 01:39:01;;;;;;;21.65;15.25;;;14.60;99.90;;;;;;4164226;28;20063;-87
2021/07/02 01:41:02;;;;;;;28.25;15.85;;;14.70;99.90;;;;;;4162530;28;20030;-86
2021/07/02 01:43:03;;;;;;;26.20;15.57;;;14.60;99.90;;;;;;4162944;28;20461;-87
2021/07/02 01:45:09;;;;;;;27.25;15.68;;;14.60;99.90;;;;;;4162636;28;20052;-87
2021/07/02 01:47:20;;;;;;;23.05;15.20;;;14.70;99.90;;;;;;4162454;28;20033;-87
2021/07/02 01:49:39;;;;;;;20.77;14.77;;;14.70;99.90;;;;;;4162562;28;20113;-86
2021/07/02 01:51:41;;;;;;;27.33;16.23;;;14.70;99.90;;;;;;4151060;28;20030;-86
2021/07/02 01:53:45;;;;;;;26.60;16.45;;;14.70;99.90;;;;;;4162952;28;20030;-86
2021/07/02 01:56:01;;;;;;;26.40;16.48;;;14.70;99.90;;;;;;4164447;28;20033;-86
2021/07/02 01:58:04;;;;;;;30.67;16.98;;;14.70;99.90;;;;;;4163710;28;20044;-86
2021/07/02 02:00:06;;;;;;;25.58;17.73;;;14.70;99.90;;;;;;4162968;28;20056;-86
2021/07/02 02:02:08;;;;;;;27.60;17.15;;;14.60;99.90;;;;;;4163452;28;20459;-87
2021/07/02 02:04:09;;;;;;;24.88;17.25;;;14.60;99.90;;;;;;4164054;28;20025;-87
2021/07/02 02:06:25;;;;;;;25.88;17.40;;;14.60;99.90;;;;;;4162613;28;20025;-86
2021/07/02 02:08:33;;;;;;;26.63;16.35;;;14.50;99.90;;;;;;4162835;28;20033;-86
2021/07/02 02:10:45;;;;;;;29.85;17.05;;;14.50;99.90;;;;;;4163837;28;20061;-86
2021/07/02 02:13:21;;;;;;;25.13;16.87;;;14.50;99.90;;;;;;4162451;28;20061;-85
2021/07/02 02:15:22;;;;;;;31.05;17.48;;;14.40;99.90;;;;;;4162390;28;20053;-86
2021/07/02 02:17:39;;;;;;;35.08;18.30;;;14.40;99.90;;;;;;4148208;28;20061;-87
2021/07/02 02:19:40;;;;;;;24.15;15.95;;;14.30;99.90;;;;;;4164398;28;20025;-87
2021/07/02 02:21:41;;;;;;;30.88;15.85;;;14.30;99.90;;;;;;4165969;28;20080;-86
2021/07/02 02:23:48;;;;;;;27.65;17.30;;;14.30;99.90;;;;;;4165484;28;20049;-87
2021/07/02 02:25:49;;;;;;;24.02;17.02;;;14.20;99.90;;;;;;4165810;28;20384;-86
2021/07/02 02:27:55;;;;;;;27.92;16.92;;;14.20;99.90;;;;;;4165162;28;20022;-87
2021/07/02 02:30:07;;;;;;;30.38;17.13;;;14.20;99.90;;;;;;4166476;28;20095;-86
2021/07/02 02:32:08;;;;;;;25.75;17.02;;;14.20;99.90;;;;;;4165391;28;20084;-86
2021/07/02 02:34:20;;;;;;;30.77;17.05;;;14.20;99.90;;;;;;4166570;28;20112;-86
2021/07/02 02:36:24;;;;;;;26.70;17.55;;;14.20;99.90;;;;;;4166743;28;21003;-86
2021/07/02 02:38:26;;;;;;;32.60;17.67;;;14.10;99.90;;;;;;4165062;28;20034;-87
2021/07/02 02:40:29;;;;;;;36.13;18.92;;;14.00;99.90;;;;;;4165623;28;20025;-87
2021/07/02 02:42:47;;;;;;;;;;;13.90;99.90;;;;;;4165880;28;20037;-86
2021/07/02 02:44:50;;;;;;;29.17;17.70;;;13.80;99.90;;;;;;4164514;28;19917;-86
2021/07/02 02:46:53;;;;;;;28.85;18.25;;;13.70;99.90;;;;;;4166607;28;20029;-87
2021/07/02 02:48:54;;;;;;;30.60;18.67;;;13.60;99.90;;;;;;4165303;28;20062;-87
2021/07/02 02:51:17;;;;;;;29.80;18.50;;;13.60;99.90;;;;;;4165037;28;20076;-87
2021/07/02 02:53:19;;;;;;;30.20;17.88;;;13.70;99.90;;;;;;4163852;28;20037;-87
2021/07/02 02:55:25;;;;;;;34.30;18.95;;;13.70;99.90;;;;;;4156530;28;20030;-87
2021/07/02 02:57:41;;;;;;;29.45;18.05;;;13.70;99.90;;;;;;4164886;28;20082;-86
2021/07/02 02:59:45;;;;;;;33.78;19.15;;;13.80;99.90;;;;;;4166253;28;20028;-88
2021/07/02 03:01:55;;;;;;;31.80;18.67;;;13.80;99.90;;;;;;4166169;28;20033;-90
2021/07/02 03:04:11;;;;;;;32.20;20.35;;;13.90;99.90;;;;;;4165129;28;20164;-89
2021/07/02 03:06:19;;;;;;;28.63;17.52;;;13.90;99.90;;;;;;4161530;28;20032;-88
2021/07/02 03:08:24;;;;;;;32.75;18.23;;;13.90;99.90;;;;;;4164703;28;20109;-90
2021/07/02 03:10:25;;;;;;;29.30;19.98;;;14.00;99.90;;;;;;4164233;28;20146;-89
2021/07/02 03:12:26;;;;;;;36.30;20.98;;;14.00;99.90;;;;;;4165165;28;20040;-88
2021/07/02 03:14:26;;;;;;;28.42;20.73;;;14.00;99.90;;;;;;4165113;28;20093;-88
2021/07/02 03:16:47;;;;;;;28.33;18.25;;;14.00;99.90;;;;;;4164411;28;20033;-89
2021/07/02 03:18:58;;;;;;;29.40;18.77;;;14.10;99.90;;;;;;4152785;28;20043;-90
2021/07/02 03:20:59;;;;;;;29.90;17.70;;;14.20;99.90;;;;;;4164947;28;20524;-89
2021/07/02 03:23:01;;;;;;;30.02;18.55;;;14.40;99.90;;;;;;4164072;28;20125;-89
2021/07/02 03:25:25;;;;;;;28.27;18.77;;;14.40;99.90;;;;;;4165191;28;20041;-89
2021/07/02 03:27:31;;;;;;;30.35;18.92;;;14.40;99.90;;;;;;4160010;28;20499;-88
2021/07/02 03:29:35;;;;;;;25.95;17.13;;;14.30;99.90;;;;;;4161874;28;20049;-89
2021/07/02 03:32:01;;;;;;;30.13;18.70;;;14.30;99.90;;;;;;4163217;28;20619;-91
2021/07/02 03:34:17;;;;;;;30.48;18.20;;;14.20;99.90;;;;;;4158555;28;20104;-88
2021/07/02 03:36:28;;;;;;;33.63;18.45;;;14.30;99.90;;;;;;4160915;28;20030;-90
2021/07/02 03:38:48;;;;;;;24.77;18.08;;;14.30;99.90;;;;;;4164669;28;20063;-90
2021/07/02 03:40:57;;;;;;;32.47;19.05;;;14.30;99.90;;;;;;4164348;28;20105;-89
2021/07/02 03:43:29;;;;;;;33.50;18.88;;;14.30;99.90;;;;;;4165343;28;20064;-90
2021/07/02 03:45:48;;;;;;;30.02;18.80;;;14.30;99.90;;;;;;4161507;28;20029;-90
2021/07/02 03:47:59;;;;;;;33.88;19.48;;;14.30;99.90;;;;;;4156684;28;20081;-89
2021/07/02 03:50:01;;;;;;;32.45;18.70;;;14.40;99.90;;;;;;4166195;28;20049;-90
2021/07/02 03:52:02;;;;;;;29.92;18.83;;;14.40;99.90;;;;;;4163654;28;20723;-89
2021/07/02 03:54:05;;;;;;;35.42;20.17;;;14.40;99.90;;;;;;4164543;28;20021;-90
2021/07/02 03:56:12;;;;;;;29.75;19.20;;;14.50;99.90;;;;;;4164373;28;20056;-89
2021/07/02 03:58:13;;;;;;;30.45;19.95;;;14.60;99.90;;;;;;4164641;28;20081;-89
2021/07/02 04:00:21;;;;;;;33.30;19.55;;;14.60;99.90;;;;;;4164545;28;20033;-89
2021/07/02 04:02:21;;;;;;;32.67;18.75;;;14.50;99.90;;;;;;4163351;28;20042;-89
2021/07/02 04:04:23;;;;;;;32.08;18.67;;;14.60;99.90;;;;;;4164491;28;20499;-90
2021/07/02 04:06:26;;;;;;;40.28;19.15;;;14.60;99.90;;;;;;4158936;28;20064;-89
2021/07/02 04:08:27;;;;;;;29.75;19.23;;;14.60;99.90;;;;;;4158482;28;20026;-87
2021/07/02 04:10:37;;;;;;;28.88;19.38;;;14.60;99.90;;;;;;4164532;28;20029;-89
2021/07/02 04:12:47;;;;;;;30.63;18.77;;;14.50;99.90;;;;;;4165422;28;20065;-89
2021/07/02 04:14:49;;;;;;;31.77;21.23;;;14.50;99.90;;;;;;4164276;28;20030;-89
2021/07/02 04:16:51;;;;;;;31.42;19.27;;;14.50;99.90;;;;;;4164205;28;20048;-88
2021/07/02 04:18:59;;;;;;;26.52;18.88;;;14.50;99.90;;;;;;4164405;28;20167;-89
2021/07/02 04:20:59;;;;;;;34.60;19.55;;;14.50;99.90;;;;;;4161832;28;20054;-89
2021/07/02 04:23:00;;;;;;;28.25;17.63;;;14.50;99.90;;;;;;4163515;28;20037;-90
2021/07/02 04:25:28;;;;;;;31.52;19.45;;;14.60;99.90;;;;;;4164126;28;20153;-88
2021/07/02 04:27:28;;;;;;;27.40;19.25;;;14.50;99.90;;;;;;4176685;28;20033;-90
2021/07/02 04:29:37;;;;;;;33.92;18.92;;;14.50;99.90;;;;;;4163803;28;20037;-89
2021/07/02 04:31:47;;;;;;;32.90;18.40;;;14.50;99.90;;;;;;4168739;28;20044;-90
2021/07/02 04:33:47;;;;;;;30.08;18.13;;;14.50;99.90;;;;;;4173090;28;20025;-89
2021/07/02 04:35:56;;;;;;;30.17;19.15;;;14.50;99.90;;;;;;4163455;28;20052;-89
2021/07/02 04:37:58;;;;;;;33.30;21.08;;;14.50;99.90;;;;;;4168420;28;20378;-90
2021/07/02 04:40:00;;;;;;;27.63;19.35;;;14.50;99.90;;;;;;4164216;28;20129;-89
2021/07/02 04:42:04;;;;;;;30.58;19.92;;;14.50;99.90;;;;;;4163370;28;20033;-90
2021/07/02 04:44:05;;;;;;;26.88;19.63;;;14.50;99.90;;;;;;4158751;28;20026;-89
2021/07/02 04:46:33;;;;;;;28.27;18.00;;;14.50;99.90;;;;;;4159213;28;20116;-89
2021/07/02 04:48:44;;;;;;;27.80;18.95;;;14.60;99.90;;;;;;4156090;28;20034;-91
2021/07/02 04:50:47;;;;;;;28.35;18.98;;;14.70;99.90;;;;;;4147090;28;20204;-89
2021/07/02 04:52:49;;;;;;;26.75;18.40;;;14.70;99.90;;;;;;4163780;28;20496;-88
2021/07/02 04:55:08;;;;;;;26.10;18.02;;;14.90;99.90;;;;;;4165222;28;20068;-88
2021/07/02 04:57:32;;;;;;;29.95;19.63;;;15.00;99.90;;;;;;4162615;28;20025;-89
2021/07/02 04:59:42;;;;;;;24.60;17.35;;;15.10;99.90;;;;;;4163722;28;20089;-89
2021/07/02 05:01:43;;;;;;;27.85;17.58;;;15.20;99.90;;;;;;4165469;28;20108;-88
2021/07/02 05:03:45;;;;;;;30.60;19.42;;;15.30;99.90;;;;;;4162918;28;20497;-89
2021/07/02 05:06:12;;;;;;;31.27;18.70;;;15.30;99.90;;;;;;4164963;28;20124;-89
2021/07/02 05:08:15;;;;;;;34.05;17.20;;;15.40;99.90;;;;;;4152076;28;20045;-89
2021/07/02 05:10:23;;;;;;;25.75;17.40;;;15.40;99.90;;;;;;4163341;28;20171;-89
2021/07/02 05:13:00;;;;;;;27.95;18.27;;;15.60;99.90;;;;;;4163370;28;20445;-89
2021/07/02 05:15:00;;;;;;;25.30;17.60;;;15.60;99.90;;;;;;4151659;28;20034;-89
2021/07/02 05:17:17;;;;;;;25.85;17.27;;;15.60;99.90;;;;;;4162196;28;20052;-86
2021/07/02 05:19:23;;;;;;;27.13;17.40;;;15.70;99.90;;;;;;4164085;28;20034;-88
2021/07/02 05:21:27;;;;;;;24.85;16.48;;;15.90;99.90;;;;;;4163573;28;20442;-88
2021/07/02 05:23:46;;;;;;;22.83;16.35;;;15.90;99.90;;;;;;4163491;28;20318;-89
2021/07/02 05:26:02;;;;;;;25.58;16.88;;;16.10;99.90;;;;;;4163387;28;20516;-88
2021/07/02 05:28:25;;;;;;;27.27;16.75;;;16.10;99.90;;;;;;4166134;28;20053;-89
2021/07/02 05:30:52;;;;;;;21.48;15.23;;;16.20;99.90;;;;;;4150670;28;20038;-89
2021/07/02 05:32:58;;;;;;;25.58;17.13;;;16.20;99.90;;;;;;4155054;28;20056;-96
2021/07/02 05:35:16;;;;;;;24.80;16.80;;;16.10;99.90;;;;;;4165883;28;20030;-91
2021/07/02 05:37:17;;;;;;;24.20;15.73;;;16.10;99.90;;;;;;4161317;28;20520;-90
2021/07/02 05:39:18;;;;;;;28.48;17.98;;;16.20;99.90;;;;;;4160415;28;20428;-89
2021/07/02 05:41:20;;;;;;;22.13;14.65;;;16.30;99.90;;;;;;4173761;28;20034;-89
2021/07/02 05:43:26;;;;;;;25.90;17.10;;;16.40;99.90;;;;;;4163690;28;21563;-91
2021/07/02 05:45:37;;;;;;;21.90;15.05;;;16.50;99.90;;;;;;4163175;28;20374;-87
2021/07/02 05:47:52;;;;;;;25.48;16.55;;;16.60;99.90;;;;;;4162008;28;20037;-89
2021/07/02 05:50:05;;;;;;;19.98;14.85;;;16.70;99.90;;;;;;4179069;28;20082;-90
2021/07/02 05:52:12;;;;;;;20.30;14.98;;;16.70;99.90;;;;;;4162473;28;20064;-91
2021/07/02 05:54:14;;;;;;;29.05;15.15;;;16.70;99.90;;;;;;4166697;28;20382;-92
2021/07/02 05:56:29;;;;;;;20.65;15.35;;;16.60;99.90;;;;;;4170148;28;20056;-92
2021/07/02 05:58:48;;;;;;;27.55;15.73;;;16.40;99.90;;;;;;4166544;28;20038;-89
2021/07/02 06:00:53;;;;;;;23.80;16.50;;;16.40;99.90;;;;;;4165182;28;20045;-90
2021/07/02 06:03:09;;;;;;;25.42;16.05;;;16.30;99.90;;;;;;4165528;28;20599;-88
2021/07/02 06:05:17;;;;;;;27.92;15.95;;;16.50;99.90;;;;;;4181654;28;20025;-84
2021/07/02 06:07:27;;;;;;;25.58;15.48;;;16.70;99.90;;;;;;4165441;28;20065;-85
2021/07/02 06:09:29;;;;;;;27.35;15.25;;;16.70;99.90;;;;;;4166024;28;20034;-85
2021/07/02 06:11:51;;;;;;;25.45;16.25;;;17.00;99.90;;;;;;4165237;28;20435;-85
2021/07/02 06:14:00;;;;;;;23.40;16.27;;;17.20;99.90;;;;;;4166238;28;20037;-86
2021/07/02 06:16:01;;;;;;;23.08;14.95;;;17.50;99.90;;;;;;4165716;28;20037;-86
2021/07/02 06:18:09;;;;;;;22.75;15.38;;;17.50;99.90;;;;;;4165902;28;20099;-86
2021/07/02 06:20:26;;;;;;;24.48;15.98;;;17.50;99.90;;;;;;4163270;28;20051;-86
2021/07/02 06:22:51;;;;;;;26.35;15.93;;;17.40;99.90;;;;;;4165499;28;20396;-86
2021/07/02 06:24:53;;;;;;;23.30;16.65;;;17.40;99.90;;;;;;4163070;28;20087;-87
2021/07/02 06:26:54;;;;;;;22.83;16.20;;;17.60;99.90;;;;;;4168887;28;20041;-87
2021/07/02 06:28:55;;;;;;;22.48;15.55;;;17.80;99.90;;;;;;4167079;28;20045;-86
2021/07/02 06:31:06;;;;;;;23.02;16.23;;;17.90;99.90;;;;;;4164598;28;20032;-86
2021/07/02 06:33:18;;;;;;;25.05;15.43;;;17.70;99.90;;;;;;4164342;28;20509;-86
2021/07/02 06:35:19;;;;;;;24.83;16.45;;;17.90;99.90;;;;;;4164214;28;20021;-86
2021/07/02 06:37:20;;;;;;;23.80;16.58;;;18.00;99.90;;;;;;4165340;28;20170;-86
2021/07/02 06:39:21;;;;;;;23.02;15.77;;;18.10;99.90;;;;;;4181939;28;20029;-86
2021/07/02 06:41:29;;;;;;;26.17;15.80;;;18.20;99.90;;;;;;4165072;28;20030;-85
2021/07/02 06:43:36;;;;;;;25.80;16.13;;;18.20;99.90;;;;;;4163766;28;20345;-85
2021/07/02 06:45:49;;;;;;;24.65;16.35;;;18.10;99.90;;;;;;4165282;28;20083;-84
2021/07/02 06:48:05;;;;;;;;;;;18.10;99.90;;;;;;4166639;28;20029;-86
2021/07/02 06:50:06;;;;;;;23.25;16.88;;;17.90;99.90;;;;;;4164164;28;20007;-85
2021/07/02 06:52:17;;;;;;;26.15;15.88;;;17.90;99.90;;;;;;4164845;28;20037;-86
2021/07/02 06:54:28;;;;;;;26.30;17.58;;;17.70;99.90;;;;;;4164521;28;20701;-85
2021/07/02 06:57:02;;;;;;;27.98;19.45;;;17.80;99.90;;;;;;4164178;28;20429;-85
2021/07/02 06:59:03;;;;;;;;;;;18.00;99.90;;;;;;4163913;28;20419;-85
2021/07/02 07:01:04;;;;;;;27.65;17.40;;;17.60;99.90;;;;;;4166940;28;19913;-86
2021/07/02 07:03:18;;;;;;;28.98;20.73;;;17.60;99.90;;;;;;4164346;28;20036;-85
2021/07/02 07:05:20;;;;;;;24.05;18.42;;;17.80;99.90;;;;;;4177042;28;20033;-84
2021/07/02 07:07:21;;;;;;;26.40;18.88;;;17.70;99.90;;;;;;4180201;28;20699;-83
2021/07/02 07:09:30;;;;;;;29.00;19.55;;;17.60;99.90;;;;;;4163567;28;20056;-84
2021/07/02 07:11:31;;;;;;;29.75;19.52;;;17.50;99.90;;;;;;4164513;28;20924;-85
2021/07/02 07:13:32;;;;;;;23.92;17.00;;;17.30;99.90;;;;;;4165271;28;20034;-84
2021/07/02 07:15:41;;;;;;;32.00;20.42;;;17.40;99.90;;;;;;4164445;28;20036;-82
2021/07/02 07:17:42;;;;;;;30.92;19.20;;;17.50;99.90;;;;;;4163994;28;20063;-80
2021/07/02 07:19:44;;;;;;;28.10;18.25;;;17.50;99.90;;;;;;4163051;28;20029;-82
2021/07/02 07:21:44;;;;;;;36.67;18.40;;;17.60;99.90;;;;;;4162959;28;20491;-82
2021/07/02 07:23:45;;;;;;;28.30;18.50;;;17.50;99.90;;;;;;4164808;28;20041;-84
2021/07/02 07:25:48;;;;;;;29.60;17.35;;;17.60;99.90;;;;;;4163445;28;20045;-84
2021/07/02 07:27:50;;;;;;;27.27;18.60;;;17.60;99.90;;;;;;4163584;28;20089;-83
2021/07/02 07:29:55;;;;;;;28.75;18.75;;;17.50;99.90;;;;;;4163709;28;20489;-82
2021/07/02 07:31:57;;;;;;;31.58;19.15;;;17.50;99.90;;;;;;4161746;28;20029;-83
2021/07/02 07:33:59;;;;;;;26.65;18.42;;;17.60;99.90;;;;;;4163592;28;20033;-84
2021/07/02 07:36:00;;;;;;;29.00;17.88;;;17.80;99.90;;;;;;4165756;28;20030;-84
2021/07/02 07:38:01;;;;;;;24.95;17.05;;;17.90;99.90;;;;;;4165281;28;20084;-84
2021/07/02 07:40:01;;;;;;;26.80;16.83;;;18.00;99.90;;;;;;4164043;28;20030;-83
2021/07/02 07:42:04;;;;;;;26.13;18.50;;;18.20;99.90;;;;;;4164890;28;20025;-83
2021/07/02 07:44:07;;;;;;;25.17;19.50;;;18.20;99.90;;;;;;4163571;28;20029;-84
2021/07/02 07:46:09;;;;;;;28.02;19.52;;;18.10;99.90;;;;;;4165779;28;20033;-84
2021/07/02 07:48:22;;;;;;;25.52;20.20;;;18.00;99.90;;;;;;4163736;28;20037;-84
2021/07/02 07:50:27;;;;;;;23.55;16.83;;;17.90;99.90;;;;;;4161390;28;20588;-85
2021/07/02 07:52:46;;;;;;;23.95;17.85;;;18.00;99.90;;;;;;4162605;28;20500;-84
2021/07/02 07:54:48;;;;;;;24.95;15.80;;;18.30;99.90;;;;;;4154112;28;20022;-85
2021/07/02 07:56:51;;;;;;;17.63;15.10;;;18.50;99.90;;;;;;4166082;28;20117;-84
2021/07/02 07:58:53;;;;;;;26.75;17.08;;;18.80;99.90;;;;;;4164726;28;20033;-82
2021/07/02 08:00:54;;;;;;;23.48;15.18;;;19.10;99.90;;;;;;4161869;28;20124;-83
2021/07/02 08:03:01;;;;;;;18.35;15.07;;;19.40;99.90;;;;;;4163002;28;20764;-83
2021/07/02 08:05:02;;;;;;;20.40;15.50;;;19.40;99.90;;;;;;4162249;28;20113;-83
2021/07/02 08:07:03;;;;;;;23.23;16.15;;;19.50;99.90;;;;;;4163565;28;20026;-83
2021/07/02 08:09:03;;;;;;;26.23;17.95;;;19.50;99.90;;;;;;4163252;28;20138;-83
2021/07/02 08:11:04;;;;;;;19.08;16.67;;;19.30;99.90;;;;;;4162910;28;20052;-84
2021/07/02 08:13:13;;;;;;;22.55;16.58;;;19.00;99.90;;;;;;4172145;28;20408;-84
2021/07/02 08:15:17;;;;;;;25.58;17.38;;;19.30;99.90;;;;;;4164795;28;20034;-84
2021/07/02 08:17:17;;;;;;;;;;;19.30;99.90;;;;;;4164325;28;20065;-82
2021/07/02 08:19:19;;;;;;;21.90;16.23;;;19.40;99.90;;;;;;4164619;28;19912;-84
2021/07/02 08:21:19;;;;;;;26.23;17.80;;;19.30;99.90;;;;;;4163444;28;20034;-85
2021/07/02 08:23:24;;;;;;;25.30;17.15;;;19.10;99.90;;;;;;4164225;28;20033;-83
2021/07/02 08:25:24;;;;;;;23.15;19.10;;;18.80;99.90;;;;;;4163386;28;20060;-84
2021/07/02 08:27:26;;;;;;;22.58;16.58;;;18.60;99.90;;;;;;4163320;28;20080;-84
2021/07/02 08:29:35;;;;;;;25.92;17.73;;;18.50;99.90;;;;;;4163258;28;20037;-84
2021/07/02 08:31:36;;;;;;;21.08;16.67;;;18.50;99.90;;;;;;4162866;28;20041;-84
2021/07/02 08:33:51;;;;;;;20.90;16.67;;;18.50;99.90;;;;;;4157419;28;20564;-84
2021/07/02 08:35:52;;;;;;;20.63;15.55;;;18.70;99.90;;;;;;4160439;28;20045;-83
2021/07/02 08:37:54;;;;;;;23.52;17.88;;;18.70;99.90;;;;;;4157628;28;20038;-84
2021/07/02 08:39:56;;;;;;;26.20;17.85;;;18.70;99.90;;;;;;4163972;28;20034;-84
2021/07/02 08:42:03;;;;;;;20.65;17.30;;;18.60;99.90;;;;;;4164257;28;20457;-82
2021/07/02 08:44:05;;;;;;;22.40;17.20;;;18.70;99.90;;;;;;4163714;28;20026;-82
2021/07/02 08:46:11;;;;;;;22.65;17.45;;;18.80;99.90;;;;;;4162797;28;20037;-83
2021/07/02 08:48:20;;;;;;;25.23;18.23;;;18.80;99.90;;;;;;4164470;28;20037;-83
2021/07/02 08:50:22;;;;;;;26.55;17.92;;;18.70;99.90;;;;;;4162195;28;20033;-83
2021/07/02 08:52:31;;;;;;;23.50;20.00;;;18.60;99.90;;;;;;4162392;28;20036;-83
2021/07/02 08:54:32;;;;;;;26.23;17.95;;;18.70;99.90;;;;;;4162320;28;20507;-82
2021/07/02 08:56:33;;;;;;;23.65;19.05;;;18.90;99.90;;;;;;4162101;28;20030;-82
2021/07/02 08:58:35;;;;;;;21.35;17.70;;;19.20;99.90;;;;;;4162619;28;20041;-85
2021/07/02 09:00:39;;;;;;;22.70;17.05;;;19.50;99.90;;;;;;4162681;28;20056;-86
2021/07/02 09:02:55;;;;;;;25.58;18.50;;;19.60;99.90;;;;;;4162813;28;20025;-86
2021/07/02 09:04:57;;;;;;;22.85;19.08;;;20.10;99.90;;;;;;4177922;28;20069;-86
2021/07/02 09:07:18;;;;;;;22.85;18.33;;;20.40;99.90;;;;;;4162158;28;20435;-86
2021/07/02 09:09:19;;;;;;;28.25;19.63;;;20.70;99.90;;;;;;4161649;28;20040;-87
2021/07/02 09:11:31;;;;;;;19.70;16.00;;;20.60;99.90;;;;;;4161516;28;20481;-86
2021/07/02 09:13:48;;;;;;;21.67;17.25;;;20.60;99.90;;;;;;4162937;28;20053;-86
2021/07/02 09:15:51;;;;;;;28.98;19.67;;;20.70;99.90;;;;;;4162919;28;20037;-88
2021/07/02 09:18:01;;;;;;;22.13;17.45;;;20.40;99.90;;;;;;4159729;28;20029;-86
2021/07/02 09:20:18;;;;;;;24.70;18.48;;;20.30;99.90;;;;;;4162882;28;20079;-86
2021/07/02 09:22:21;;;;;;;23.88;17.98;;;20.20;99.90;;;;;;4159409;28;20505;-87
2021/07/02 09:24:48;;;;;;;25.67;19.60;;;20.10;99.90;;;;;;4162012;28;20029;-86
2021/07/02 09:26:50;;;;;;;24.92;19.63;;;20.10;99.90;;;;;;4162759;28;20068;-88
2021/07/02 09:29:13;;;;;;;26.08;20.55;;;20.10;99.90;;;;;;4162454;28;20021;-88
2021/07/02 09:31:34;;;;;;;27.10;20.20;;;20.00;99.90;;;;;;4178811;28;20033;-86
2021/07/02 09:33:42;;;;;;;27.88;20.05;;;19.80;99.90;;;;;;4179035;28;20033;-85
2021/07/02 09:35:58;;;;;;;22.75;18.85;;;19.80;99.90;;;;;;4163986;28;20033;-83
2021/07/02 09:38:15;;;;;;;28.95;19.40;;;19.70;99.90;;;;;;4161984;28;20133;-83
2021/07/02 09:40:22;;;;;;;27.60;20.25;;;19.80;99.90;;;;;;4158852;28;20033;-83
2021/07/02 09:42:28;;;;;;;30.40;19.15;;;20.10;99.90;;;;;;4160862;28;20017;-85
2021/07/02 09:44:34;;;;;;;23.60;19.00;;;19.90;99.90;;;;;;4160731;28;20492;-85
2021/07/02 09:46:36;;;;;;;20.98;16.67;;;19.80;99.90;;;;;;4162017;28;20037;-81
2021/07/02 09:48:50;;;;;;;24.63;17.30;;;19.60;99.90;;;;;;4161040;28;20140;-83
2021/07/02 09:51:09;;;;;;;17.50;15.57;;;19.40;99.90;;;;;;4163642;28;20026;-84
2021/07/02 09:53:11;;;;;;;25.00;17.70;;;19.40;99.90;;;;;;4162880;28;20070;-84
2021/07/02 09:55:28;;;;;;;26.60;19.15;;;19.40;99.90;;;;;;4162987;28;20029;-83
2021/07/02 09:57:37;;;;;;;24.92;17.42;;;19.50;99.90;;;;;;4160690;28;20117;-84
2021/07/02 10:00:02;;;;;;;28.45;19.27;;;19.30;99.90;;;;;;4148100;28;20489;-84
2021/07/02 10:02:18;;;;;;;27.30;19.40;;;19.00;99.90;;;;;;4161153;28;20441;-82
2021/07/02 10:04:20;;;;;;;27.27;20.10;;;19.00;99.90;;;;;;4160512;28;20121;-83
2021/07/02 10:06:24;;;;;;;25.60;22.13;;;19.10;99.90;;;;;;4160725;28;22577;-84
2021/07/02 10:08:28;;;;;;;25.33;19.05;;;19.00;99.90;;;;;;4159872;28;20037;-84
2021/07/02 10:10:30;;;;;;;;;;;19.10;99.90;;;;;;4161987;28;20072;-83
2021/07/02 10:12:37;;;;;;;26.30;18.55;;;19.30;99.90;;;;;;4164339;28;19909;-84
2021/07/02 10:14:41;;;;;;;29.17;19.33;;;19.50;99.90;;;;;;4163474;28;20472;-84
2021/07/02 10:16:45;;;;;;;23.15;18.10;;;19.70;99.90;;;;;;4162467;28;20064;-83
2021/07/02 10:18:59;;;;;;;22.20;18.13;;;19.70;99.90;;;;;;4161568;28;20045;-83
2021/07/02 10:21:02;;;;;;;24.05;17.73;;;19.60;99.90;;;;;;4163019;28;20431;-83
2021/07/02 10:23:05;;;;;;;;;;;19.80;99.90;;;;;;4162477;28;20045;-84
2021/07/02 10:25:07;;;;;;;20.95;16.85;;;20.00;99.90;;;;;;4152254;28;19924;-84
2021/07/02 10:27:15;;;;;;;18.48;15.80;;;20.40;99.90;;;;;;4161236;28;20030;-85
2021/07/02 10:29:25;;;;;;;20.38;15.35;;;20.70;99.90;;;;;;4162131;28;20439;-84
2021/07/02 10:31:33;;;;;;;23.73;16.52;;;20.70;99.90;;;;;;4161990;28;20914;-84
2021/07/02 10:33:43;;;;;;;23.67;18.35;;;20.50;99.90;;;;;;4161702;28;20038;-84
2021/07/02 10:36:11;;;;;;;26.00;18.40;;;20.30;99.90;;;;;;4156945;28;20041;-84
2021/07/02 10:38:13;;;;;;;25.10;19.98;;;20.30;99.90;;;;;;4176440;28;20515;-84
2021/07/02 10:40:38;;;;;;;24.10;18.25;;;19.90;99.90;;;;;;4178578;28;20021;-84
2021/07/02 10:43:09;;;;;;;22.10;18.38;;;20.00;99.90;;;;;;4165277;28;20041;-83
2021/07/02 10:45:12;;;;;;;23.45;18.00;;;20.00;99.90;;;;;;4165208;28;20022;-84
2021/07/02 10:47:16;;;;;;;27.17;19.98;;;19.90;99.90;;;;;;4160604;28;20037;-84
2021/07/02 10:49:18;;;;;;;20.02;16.10;;;19.60;99.90;;;;;;4170434;28;20041;-82